Time;durP1;ratioP1;P1;durP2;ratioP2;P2;SDS_P1;SDS_P2;PMS_P1;PMS_P2;Temp;Humidity;BMP_temperature;BMP_pressure;BME280_temperature;BME280_humidity;BME280_pressure;Samples;Min_cycle;Max_cycle;Signal;HPM_P1;HPM_P2
2022/09/14 00:01:35;;;;;;;7.47;3.97;;;;;;;16.11;97.40;99674.47;5114495;28;20078;-71
2022/09/14 00:04:07;;;;;;;7.93;4.35;;;;;;;16.02;98.31;99676.19;5114301;28;20071;-71
2022/09/14 00:06:35;;;;;;;8.10;3.85;;;;;;;16.10;95.77;99679.00;5114783;28;20071;-71
2022/09/14 00:09:06;;;;;;;6.07;3.25;;;;;;;16.09;95.56;99674.59;5113994;28;20082;-71
2022/09/14 00:11:36;;;;;;;5.70;3.15;;;;;;;16.14;94.15;99674.19;5114062;28;20067;-70
2022/09/14 00:14:06;;;;;;;6.10;3.03;;;;;;;16.11;93.40;99674.47;5112770;28;20091;-71
2022/09/14 00:16:36;;;;;;;7.80;2.92;;;;;;;16.12;93.61;99670.81;5114555;28;20047;-71
2022/09/14 00:19:08;;;;;;;8.73;3.47;;;;;;;16.05;93.41;99666.97;5114109;28;20050;-71
2022/09/14 00:21:38;;;;;;;7.55;3.55;;;;;;;16.02;93.90;99666.28;5114296;28;20075;-71
2022/09/14 00:24:07;;;;;;;7.05;3.28;;;;;;;16.02;93.33;99666.28;5113916;28;20353;-70
2022/09/14 00:26:36;;;;;;;8.73;3.13;;;;;;;16.03;93.96;99662.59;5114349;28;20056;-71
2022/09/14 00:29:05;;;;;;;6.47;3.28;;;;;;;15.99;92.83;99650.41;5112283;28;20047;-71
2022/09/14 00:31:36;;;;;;;8.57;3.30;;;;;;;16.10;91.91;99652.09;5114112;28;20048;-69
2022/09/14 00:34:07;;;;;;;6.03;2.90;;;;;;;16.13;90.98;99645.59;5113898;28;20039;-70
2022/09/14 00:36:40;;;;;;;6.28;3.10;;;;;;;16.13;91.10;99640.22;5113703;28;20054;-70
2022/09/14 00:39:10;;;;;;;5.03;2.83;;;;;;;16.14;90.27;99640.06;5113680;28;20123;-70
2022/09/14 00:41:41;;;;;;;5.65;3.40;;;;;;;16.05;91.19;99642.75;5112168;28;20055;-70
2022/09/14 00:44:43;;;;;;;5.63;2.95;;;;;;;15.97;92.71;99640.78;5113667;28;20532;-69
2022/09/14 00:47:13;;;;;;;4.95;3.40;;;;;;;15.90;92.87;99645.84;5113373;28;20050;-69
2022/09/14 00:49:43;;;;;;;4.75;2.88;;;;;;;15.88;93.42;99647.84;5113814;28;20137;-70
2022/09/14 00:52:18;;;;;;;6.15;3.38;;;;;;;15.86;93.85;99644.47;5113569;28;20118;-70
2022/09/14 00:54:51;;;;;;;5.75;2.83;;;;;;;15.79;94.91;99643.31;5112396;28;20108;-70
2022/09/14 00:57:20;;;;;;;6.65;3.10;;;;;;;15.76;95.57;99654.34;5113580;28;20042;-69
2022/09/14 00:59:50;;;;;;;9.63;3.35;;;;;;;15.66;96.56;99654.34;5113220;28;20047;-77
2022/09/14 01:02:20;;;;;;;5.70;3.50;;;;;;;15.59;99.13;99657.69;5113283;28;20043;-72
2022/09/14 01:04:49;;;;;;;5.97;3.50;;;;;;;15.55;99.64;99650.91;5113337;28;20040;-75
2022/09/14 01:07:30;;;;;;;6.35;3.60;;;;;;;15.53;100.00;99655.53;5113302;28;20139;-72
2022/09/14 01:10:08;;;;;;;10.80;3.63;;;;;;;15.51;100.00;99644.09;5113103;28;20134;-72
2022/09/14 01:12:49;;;;;;;7.10;3.17;;;;;;;15.49;100.00;99643.38;5111644;28;20500;-72
2022/09/14 01:15:24;;;;;;;6.63;4.20;;;;;;;15.49;100.00;99641.53;5113038;28;20134;-71
2022/09/14 01:18:00;;;;;;;5.88;3.97;;;;;;;15.46;100.00;99642.69;5112974;28;20078;-72
2022/09/14 01:20:35;;;;;;;6.78;4.30;;;;;;;15.46;100.00;99637.28;5113127;28;20043;-71
2022/09/14 01:23:10;;;;;;;6.57;3.95;;;;;;;15.37;100.00;99635.44;5112841;28;20039;-71
2022/09/14 01:26:01;;;;;;;8.98;4.45;;;;;;;15.36;100.00;99636.44;5112762;28;20147;-72
2022/09/14 01:28:40;;;;;;;10.70;3.90;;;;;;;15.30;100.00;99626.22;5112940;28;20053;-72
2022/09/14 01:31:21;;;;;;;7.63;4.38;;;;;;;15.30;100.00;99626.22;5112711;28;20051;-71
2022/09/14 01:33:55;;;;;;;9.35;4.60;;;;;;;15.24;100.00;99618.69;5112682;28;20040;-72
2022/09/14 01:36:25;;;;;;;6.78;4.13;;;;;;;15.21;100.00;99616.28;5112482;28;20043;-72
2022/09/14 01:38:55;;;;;;;10.07;4.13;;;;;;;15.16;100.00;99618.56;5112494;28;20039;-72
2022/09/14 01:41:30;;;;;;;6.85;4.20;;;;;;;15.12;100.00;99617.09;5113025;28;20040;-71
2022/09/14 01:44:03;;;;;;;8.77;4.20;;;;;;;15.06;100.00;99617.69;5112566;28;20044;-72
2022/09/14 01:46:39;;;;;;;8.55;4.35;;;;;;;15.11;100.00;99620.78;5112749;28;20075;-71
2022/09/14 01:49:15;;;;;;;6.65;3.90;;;;;;;15.20;100.00;99617.28;5112539;28;20043;-71
2022/09/14 01:51:46;;;;;;;7.15;4.65;;;;;;;15.23;100.00;99619.69;5112390;28;20040;-71
2022/09/14 01:54:21;;;;;;;7.53;4.47;;;;;;;15.05;100.00;99615.94;5112098;27;20044;-71
2022/09/14 01:56:53;;;;;;;7.30;4.70;;;;;;;15.00;100.00;99610.16;5112342;28;20558;-72
2022/09/14 01:59:24;;;;;;;8.75;4.57;;;;;;;15.01;100.00;99603.78;5112243;28;20059;-71
2022/09/14 02:01:57;;;;;;;10.35;5.05;;;;;;;15.01;100.00;99606.47;5111974;28;20047;-72
2022/09/14 02:04:31;;;;;;;9.75;4.65;;;;;;;14.96;100.00;99600.66;5112176;28;20118;-72
2022/09/14 02:06:59;;;;;;;10.15;5.03;;;;;;;14.99;100.00;99595.03;5112003;28;20400;-71
2022/09/14 02:09:28;;;;;;;8.13;4.60;;;;;;;14.88;100.00;99588.78;5112315;28;20050;-71
2022/09/14 02:11:59;;;;;;;8.73;4.80;;;;;;;14.93;100.00;99590.19;5111898;28;20088;-72
2022/09/14 02:14:29;;;;;;;6.68;4.70;;;;;;;14.93;100.00;99596.41;5112203;28;20043;-72
2022/09/14 02:16:58;;;;;;;8.70;5.32;;;;;;;14.84;100.00;99581.97;5110519;28;20130;-72
2022/09/14 02:19:30;;;;;;;8.95;4.85;;;;;;;14.92;100.00;99583.97;5112192;28;20047;-73
2022/09/14 02:21:59;;;;;;;8.13;5.20;;;;;;;14.91;100.00;99576.06;5111966;28;20036;-72
2022/09/14 02:24:28;;;;;;;10.77;5.50;;;;;;;14.79;100.00;99572.63;5111777;28;20537;-72
2022/09/14 02:26:58;;;;;;;14.57;5.45;;;;;;;14.71;100.00;99554.50;5111631;28;20069;-72
2022/09/14 02:29:26;;;;;;;9.82;5.25;;;;;;;14.64;100.00;99571.28;5111806;28;20082;-72
2022/09/14 02:32:21;;;;;;;10.02;5.38;;;;;;;14.66;100.00;99572.00;5112054;28;20487;-73
2022/09/14 02:34:58;;;;;;;9.18;5.38;;;;;;;14.49;100.00;99570.81;5112073;28;20055;-72
2022/09/14 02:37:36;;;;;;;8.88;5.60;;;;;;;14.55;100.00;99562.19;5112239;28;20044;-72
2022/09/14 02:40:13;;;;;;;8.20;5.78;;;;;;;14.61;100.00;99559.00;5111654;28;20046;-73
2022/09/14 02:42:51;;;;;;;9.48;5.57;;;;;;;14.62;100.00;99558.00;5111692;28;20122;-73
2022/09/14 02:45:25;;;;;;;8.45;5.50;;;;;;;14.43;100.00;99565.94;5111968;28;20044;-73
2022/09/14 02:48:01;;;;;;;9.13;5.75;;;;;;;14.43;100.00;99550.69;5112071;28;20039;-73
2022/09/14 02:50:36;;;;;;;8.18;5.22;;;;;;;14.45;100.00;99550.56;5111769;28;20412;-73
2022/09/14 02:53:10;;;;;;;9.35;5.55;;;;;;;14.51;100.00;99547.38;5111121;28;20047;-72
2022/09/14 02:55:43;;;;;;;10.20;5.60;;;;;;;14.51;100.00;99542.84;5111504;28;20075;-73
2022/09/14 02:58:13;;;;;;;13.27;6.05;;;;;;;14.51;100.00;99547.38;5111291;28;20130;-74
2022/09/14 03:00:49;;;;;;;8.43;5.40;;;;;;;14.44;100.00;99552.38;5111776;28;20055;-71
2022/09/14 03:03:21;;;;;;;10.55;5.55;;;;;;;14.41;100.00;99547.28;5110011;28;20496;-71
2022/09/14 03:05:49;;;;;;;11.35;5.40;;;;;;;14.43;100.00;99547.16;5112093;28;20472;-71
2022/09/14 03:08:17;;;;;;;8.77;4.85;;;;;;;14.48;100.00;99542.28;5114771;28;20119;-71
2022/09/14 03:10:45;;;;;;;12.55;5.60;;;;;;;14.64;100.00;99539.91;5115463;28;20358;-70
2022/09/14 03:13:13;;;;;;;8.02;5.35;;;;;;;14.70;100.00;99535.84;5115235;28;20035;-71
2022/09/14 03:15:42;;;;;;;9.57;4.88;;;;;;;14.76;100.00;99527.25;5115228;28;20078;-71
2022/09/14 03:18:10;;;;;;;7.20;4.80;;;;;;;14.82;100.00;99538.28;5115552;28;20476;-73
2022/09/14 03:20:43;;;;;;;9.25;4.97;;;;;;;14.89;100.00;99534.09;5115451;28;20118;-73
2022/09/14 03:23:13;;;;;;;9.20;4.93;;;;;;;14.79;100.00;99533.22;5115212;28;20043;-74
2022/09/14 03:25:43;;;;;;;11.93;6.68;;;;;;;14.79;100.00;99530.53;5115089;28;20070;-70
2022/09/14 03:28:12;;;;;;;11.43;5.15;;;;;;;14.79;100.00;99530.53;5115231;28;20368;-70
2022/09/14 03:30:41;;;;;;;10.00;5.22;;;;;;;14.89;100.00;99547.50;5115318;28;20121;-70
2022/09/14 03:33:09;;;;;;;9.90;5.47;;;;;;;14.82;100.00;99535.59;5114840;28;20035;-69
2022/09/14 03:35:37;;;;;;;9.30;5.47;;;;;;;14.85;100.00;99543.38;5115130;28;20101;-70
2022/09/14 03:38:07;;;;;;;8.80;5.80;;;;;;;14.81;100.00;99535.75;5113410;28;20047;-70
2022/09/14 03:40:35;;;;;;;10.57;6.20;;;;;;;14.81;100.00;99533.91;5114875;28;20043;-70
2022/09/14 03:43:03;;;;;;;9.65;5.45;;;;;;;14.93;100.00;99525.75;5114422;28;20042;-71
2022/09/14 03:45:31;;;;;;;9.77;5.07;;;;;;;14.94;100.00;99524.75;5114820;28;20059;-70
2022/09/14 03:47:59;;;;;;;9.55;5.53;;;;;;;14.98;100.00;99526.19;5114560;28;20047;-72
2022/09/14 03:50:27;;;;;;;10.57;6.00;;;;;;;15.06;100.00;99521.00;5114840;28;20044;-70
2022/09/14 03:52:55;;;;;;;9.98;5.55;;;;;;;15.02;100.00;99535.66;5114780;28;20149;-70
2022/09/14 03:55:25;;;;;;;8.55;4.95;;;;;;;14.96;100.00;99542.44;5114356;28;20050;-70
2022/09/14 03:57:54;;;;;;;9.07;5.13;;;;;;;14.93;100.00;99537.34;5114523;28;20089;-72
2022/09/14 04:00:23;;;;;;;11.30;4.93;;;;;;;14.90;100.00;99537.63;5114298;27;20051;-71
2022/09/14 04:02:51;;;;;;;9.32;5.38;;;;;;;14.89;100.00;99542.13;5114603;28;20285;-71
2022/09/14 04:05:19;;;;;;;8.23;5.25;;;;;;;15.01;100.00;99537.50;5114439;28;20047;-71
2022/09/14 04:07:49;;;;;;;8.00;4.68;;;;;;;14.99;100.00;99538.63;5114270;28;20100;-71
2022/09/14 04:10:17;;;;;;;9.50;4.90;;;;;;;14.94;100.00;99538.19;5114244;28;20044;-71
2022/09/14 04:12:46;;;;;;;9.90;5.45;;;;;;;14.91;100.00;99538.47;5114354;28;20051;-71
2022/09/14 04:15:15;;;;;;;7.68;4.70;;;;;;;14.89;100.00;99536.78;5114146;28;20513;-71
2022/09/14 04:17:43;;;;;;;10.23;5.18;;;;;;;14.91;100.00;99533.09;5114010;28;20117;-70
2022/09/14 04:20:11;;;;;;;8.02;5.05;;;;;;;14.94;100.00;99533.66;5112483;28;20043;-70
2022/09/14 04:22:39;;;;;;;10.57;5.50;;;;;;;14.98;100.00;99523.50;5114294;28;20039;-70
2022/09/14 04:25:08;;;;;;;10.00;5.75;;;;;;;14.97;100.00;99516.44;5113526;28;20044;-71
2022/09/14 04:27:36;;;;;;;8.93;5.63;;;;;;;15.07;100.00;99510.09;5113725;28;20419;-70
2022/09/14 04:30:07;;;;;;;12.18;6.03;;;;;;;15.13;100.00;99500.63;5113810;28;20400;-70
2022/09/14 04:32:35;;;;;;;9.90;5.90;;;;;;;15.05;100.00;99497.78;5112619;28;20369;-71
2022/09/14 04:35:03;;;;;;;10.48;6.10;;;;;;;15.08;100.00;99493.00;5113465;28;20055;-71
2022/09/14 04:37:32;;;;;;;12.93;5.93;;;;;;;15.14;100.00;99492.41;5113946;28;20043;-71
2022/09/14 04:40:00;;;;;;;11.73;5.28;;;;;;;15.11;100.00;99495.41;5113915;28;20093;-71
2022/09/14 04:42:29;;;;;;;9.93;5.57;;;;;;;15.03;100.00;99494.38;5113857;28;20046;-71
2022/09/14 04:44:57;;;;;;;9.70;5.95;;;;;;;14.96;100.00;99498.59;5113491;28;20429;-71
2022/09/14 04:47:28;;;;;;;13.65;6.22;;;;;;;14.87;100.00;99503.00;5113207;28;20513;-71
2022/09/14 04:49:57;;;;;;;10.77;5.82;;;;;;;14.86;100.00;99504.84;5113694;28;20046;-71
2022/09/14 04:52:25;;;;;;;10.68;6.00;;;;;;;14.86;100.00;99504.84;5113018;28;20039;-70
2022/09/14 04:54:53;;;;;;;10.63;5.60;;;;;;;14.92;100.00;99503.41;5113423;28;20126;-70
2022/09/14 04:57:21;;;;;;;12.43;5.40;;;;;;;15.07;100.00;99493.13;5113243;28;20035;-70
2022/09/14 04:59:49;;;;;;;9.25;5.45;;;;;;;15.23;100.00;99485.34;5111837;28;20453;-71
2022/09/14 05:02:18;;;;;;;10.85;6.63;;;;;;;15.50;100.00;99484.66;5111394;28;20468;-70
2022/09/14 05:04:47;;;;;;;10.88;5.05;;;;;;;15.54;100.00;99488.78;5113362;28;20039;-70
2022/09/14 05:07:15;;;;;;;13.73;5.85;;;;;;;15.58;100.00;99487.50;5112875;28;20051;-70
2022/09/14 05:09:43;;;;;;;9.02;5.68;;;;;;;15.63;100.00;99493.34;5112905;28;20108;-72
2022/09/14 05:12:12;;;;;;;13.57;6.63;;;;;;;15.63;100.00;99497.84;5112884;28;20044;-71
2022/09/14 05:14:40;;;;;;;15.77;7.55;;;;;;;15.60;100.00;99493.59;5112917;28;20036;-71
2022/09/14 05:17:08;;;;;;;10.93;5.97;;;;;;;15.66;100.00;99501.09;5112551;28;20062;-71
2022/09/14 05:19:36;;;;;;;13.77;6.20;;;;;;;15.64;100.00;99504.94;5112961;28;20442;-71
2022/09/14 05:22:05;;;;;;;13.38;5.68;;;;;;;15.69;100.00;99502.66;5112666;28;20047;-73
2022/09/14 05:24:33;;;;;;;13.35;6.10;;;;;;;15.68;100.00;99503.66;5112748;28;20048;-71
2022/09/14 05:27:01;;;;;;;9.02;6.05;;;;;;;15.69;100.00;99514.25;5112834;28;20081;-72
2022/09/14 05:29:30;;;;;;;11.68;6.50;;;;;;;15.70;100.00;99507.88;5111768;28;20039;-71
2022/09/14 05:31:58;;;;;;;12.15;5.63;;;;;;;15.77;100.00;99512.69;5111543;28;20102;-72
2022/09/14 05:34:27;;;;;;;12.32;5.95;;;;;;;15.90;98.80;99515.91;5112235;28;20047;-72
2022/09/14 05:36:54;;;;;;;12.63;6.00;;;;;;;15.98;97.39;99508.84;5112620;28;20116;-69
2022/09/14 05:39:24;;;;;;;11.77;5.80;;;;;;;16.03;97.45;99493.13;5112085;28;20042;-73
2022/09/14 05:41:53;;;;;;;11.63;5.25;;;;;;;16.20;95.00;99475.34;5112488;28;20032;-73
2022/09/14 05:44:21;;;;;;;10.43;5.30;;;;;;;16.31;93.34;99471.66;5110622;28;20531;-71
2022/09/14 05:46:49;;;;;;;11.13;5.93;;;;;;;16.14;95.35;99470.56;5112164;28;20122;-71
2022/09/14 05:49:17;;;;;;;10.75;5.80;;;;;;;16.24;93.91;99482.16;5110174;28;20054;-73
2022/09/14 05:51:45;;;;;;;12.20;6.13;;;;;;;16.13;94.75;99485.03;5110407;28;20043;-73
2022/09/14 05:54:14;;;;;;;13.82;6.90;;;;;;;16.11;96.17;99481.59;5111606;28;20054;-73
2022/09/14 05:56:43;;;;;;;10.70;6.40;;;;;;;16.23;96.59;99479.63;5111938;28;20100;-73
2022/09/14 05:59:11;;;;;;;11.45;6.35;;;;;;;16.25;96.02;99489.22;5112117;28;20046;-77
2022/09/14 06:01:40;;;;;;;11.00;6.10;;;;;;;16.31;96.12;99487.81;5112260;28;20036;-77
2022/09/14 06:04:10;;;;;;;12.57;5.55;;;;;;;16.30;94.84;99494.16;5111972;28;20119;-78
2022/09/14 06:06:38;;;;;;;15.38;5.72;;;;;;;16.40;94.34;99504.88;5111891;28;20050;-75
2022/09/14 06:09:06;;;;;;;9.32;5.18;;;;;;;16.49;93.18;99510.22;5111902;28;20431;-79
2022/09/14 06:11:36;;;;;;;12.93;5.53;;;;;;;16.59;93.87;99505.66;5112142;28;20061;-73
2022/09/14 06:14:06;;;;;;;10.20;4.88;;;;;;;16.78;92.96;99509.28;5111687;28;20092;-71
2022/09/14 06:16:34;;;;;;;7.80;4.28;;;;;;;16.94;90.74;99497.88;5110715;28;20431;-74
2022/09/14 06:19:03;;;;;;;7.70;5.18;;;;;;;17.08;87.62;99486.56;5109975;28;20055;-75
2022/09/14 06:21:34;;;;;;;9.68;5.20;;;;;;;17.16;87.14;99474.03;5110019;28;20054;-72
2022/09/14 06:24:03;;;;;;;8.85;4.82;;;;;;;17.28;85.12;99481.91;5111863;28;20040;-71
2022/09/14 06:26:31;;;;;;;11.48;5.05;;;;;;;17.35;85.64;99483.81;5109845;28;20091;-72
2022/09/14 06:28:59;;;;;;;9.70;4.97;;;;;;;17.56;85.82;99483.47;5111700;28;20052;-72
2022/09/14 06:31:29;;;;;;;8.60;4.85;;;;;;;17.71;83.56;99494.59;5111103;28;20039;-72
2022/09/14 06:33:57;;;;;;;7.65;4.30;;;;;;;17.72;84.31;99491.75;5111503;28;20044;-70
2022/09/14 06:36:27;;;;;;;12.27;4.90;;;;;;;17.72;84.40;99480.97;5111843;28;20058;-71
2022/09/14 06:38:56;;;;;;;9.63;4.85;;;;;;;17.68;82.52;99479.56;5111692;28;20503;-71
2022/09/14 06:41:27;;;;;;;8.93;5.10;;;;;;;17.58;84.40;99483.34;5113274;28;20396;-72
2022/09/14 06:43:57;;;;;;;11.48;4.95;;;;;;;17.62;85.25;99490.97;5114579;28;20058;-71
2022/09/14 06:46:27;;;;;;;9.70;5.43;;;;;;;17.55;85.38;99489.88;5114468;28;20043;-72
2022/09/14 06:48:58;;;;;;;10.27;5.40;;;;;;;17.48;87.33;99505.00;5116434;28;20054;-72
2022/09/14 06:51:29;;;;;;;12.60;6.10;;;;;;;17.34;88.86;99508.22;5114349;28;20400;-72
2022/09/14 06:53:59;;;;;;;11.23;5.38;;;;;;;17.32;89.16;99510.22;5116025;28;20039;-72
2022/09/14 06:56:28;;;;;;;10.63;5.18;;;;;;;17.34;89.53;99519.00;5114231;28;20055;-73
2022/09/14 06:58:57;;;;;;;13.77;5.40;;;;;;;17.27;90.12;99517.91;5114331;28;20047;-74
2022/09/14 07:01:26;;;;;;;11.77;5.35;;;;;;;17.18;92.57;99508.91;5115679;28;20549;-74
2022/09/14 07:03:57;;;;;;;9.30;5.13;;;;;;;17.10;98.59;99504.28;5115970;28;20046;-72
2022/09/14 07:06:27;;;;;;;13.70;6.00;;;;;;;17.05;100.00;99497.66;5115183;28;20040;-71
2022/09/14 07:08:56;;;;;;;15.85;6.40;;;;;;;16.96;100.00;99490.47;5115297;28;20043;-72
2022/09/14 07:11:26;;;;;;;11.60;6.22;;;;;;;17.01;100.00;99480.94;5114707;28;20360;-72
2022/09/14 07:13:57;;;;;;;12.55;5.72;;;;;;;16.99;100.00;99482.09;5113612;28;20070;-72
2022/09/14 07:16:26;;;;;;;12.23;5.80;;;;;;;16.92;100.00;99481.84;5114771;28;20088;-72
2022/09/14 07:19:00;;;;;;;11.43;6.45;;;;;;;16.94;100.00;99484.41;5114700;28;20047;-72
2022/09/14 07:21:29;;;;;;;12.82;5.93;;;;;;;16.95;100.00;99491.47;5112923;28;20044;-73
2022/09/14 07:23:58;;;;;;;11.38;5.80;;;;;;;16.97;100.00;99495.69;5114484;28;20073;-72
2022/09/14 07:26:28;;;;;;;11.93;6.10;;;;;;;17.04;100.00;99471.72;5114437;28;20055;-72
2022/09/14 07:28:59;;;;;;;11.40;6.65;;;;;;;17.05;100.00;99492.25;5113529;28;20043;-72
2022/09/14 07:31:29;;;;;;;11.13;6.63;;;;;;;17.02;100.00;99506.88;5113297;28;20052;-73
2022/09/14 07:34:03;;;;;;;14.18;7.80;;;;;;;16.93;100.00;99490.78;5114923;28;20074;-74
2022/09/14 07:36:33;;;;;;;12.90;7.20;;;;;;;16.93;100.00;99488.94;5115046;28;20400;-73
2022/09/14 07:39:04;;;;;;;12.63;7.32;;;;;;;16.94;100.00;99490.63;5114925;27;20047;-73
2022/09/14 07:41:33;;;;;;;14.75;7.60;;;;;;;16.96;100.00;99483.22;5114567;28;20039;-71
2022/09/14 07:44:02;;;;;;;14.50;7.47;;;;;;;17.07;100.00;99485.72;5114446;28;20043;-72
2022/09/14 07:46:32;;;;;;;13.02;7.78;;;;;;;17.09;100.00;99489.13;5112638;28;20112;-73
2022/09/14 07:49:03;;;;;;;13.07;7.50;;;;;;;17.14;100.00;99486.81;5114649;28;20385;-72
2022/09/14 07:51:33;;;;;;;15.82;7.45;;;;;;;17.21;100.00;99483.50;5113118;28;20047;-72
2022/09/14 07:54:01;;;;;;;11.48;7.13;;;;;;;17.38;100.00;99478.13;5114087;28;20044;-72
2022/09/14 07:56:30;;;;;;;12.05;7.38;;;;;;;17.51;100.00;99483.13;5114249;28;20054;-73
2022/09/14 07:58:59;;;;;;;11.40;7.25;;;;;;;17.45;100.00;99479.19;5114506;28;20063;-73
2022/09/14 08:01:48;;;;;;;13.32;7.13;;;;;;;17.48;100.00;99472.66;5114565;28;20131;-73
2022/09/14 08:04:18;;;;;;;12.25;6.90;;;;;;;17.44;100.00;99477.50;5114029;28;20103;-73
2022/09/14 08:06:46;;;;;;;12.23;6.97;;;;;;;17.52;100.00;99481.25;5114564;28;20097;-73
2022/09/14 08:09:14;;;;;;;12.63;7.28;;;;;;;17.60;100.00;99487.56;5114140;28;20122;-73
2022/09/14 08:11:42;;;;;;;9.60;6.13;;;;;;;17.59;100.00;99479.66;5114255;28;20044;-73
2022/09/14 08:14:12;;;;;;;12.98;7.28;;;;;;;17.80;100.00;99457.75;5114467;28;20043;-72
2022/09/14 08:16:41;;;;;;;14.95;8.05;;;;;;;18.00;100.00;99451.16;5114359;28;20533;-72
2022/09/14 08:19:14;;;;;;;11.30;7.10;;;;;;;18.00;100.00;99446.59;5113131;28;20473;-72
2022/09/14 08:21:44;;;;;;;11.82;6.38;;;;;;;17.95;100.00;99443.53;5114123;28;20259;-72
2022/09/14 08:24:16;;;;;;;12.85;7.50;;;;;;;17.60;100.00;99441.75;5114070;28;20151;-80
2022/09/14 08:26:45;;;;;;;14.07;7.40;;;;;;;17.65;100.00;99458.28;5113971;28;20507;-72
2022/09/14 08:29:13;;;;;;;12.90;7.28;;;;;;;17.76;100.00;99451.84;5114143;28;20069;-72
2022/09/14 08:31:44;;;;;;;14.50;7.65;;;;;;;17.85;100.00;99463.50;5114030;28;20043;-72
2022/09/14 08:34:14;;;;;;;15.55;7.90;;;;;;;17.94;100.00;99447.22;5113643;28;20070;-72
2022/09/14 08:36:44;;;;;;;13.38;7.07;;;;;;;18.11;100.00;99455.44;5113553;28;20100;-72
2022/09/14 08:39:15;;;;;;;14.55;7.13;;;;;;;18.33;100.00;99451.31;5112354;28;20093;-72
2022/09/14 08:41:49;;;;;;;13.18;7.65;;;;;;;18.55;100.00;99448.91;5113369;28;20043;-72
2022/09/14 08:44:23;;;;;;;16.30;7.55;;;;;;;18.70;100.00;99446.44;5112918;28;20054;-73
2022/09/14 08:46:55;;;;;;;11.32;7.10;;;;;;;18.68;100.00;99444.94;5111574;28;20056;-72
2022/09/14 08:49:38;;;;;;;11.65;7.30;;;;;;;19.03;100.00;99442.00;5111523;28;20127;-72
2022/09/14 08:52:13;;;;;;;13.80;7.47;;;;;;;19.22;100.00;99443.56;5111217;28;20047;-72
2022/09/14 08:54:41;;;;;;;11.50;7.75;;;;;;;19.36;100.00;99439.31;5111269;28;20140;-72
2022/09/14 08:57:16;;;;;;;12.50;7.07;;;;;;;19.37;100.00;99428.34;5112798;28;20365;-72
2022/09/14 08:59:52;;;;;;;14.50;8.07;;;;;;;19.53;100.00;99432.91;5113377;28;20074;-72
2022/09/14 09:02:34;;;;;;;13.75;7.95;;;;;;;19.51;100.00;99432.25;5111265;28;20127;-73
2022/09/14 09:05:15;;;;;;;11.65;7.35;;;;;;;19.61;100.00;99432.09;5112279;28;20122;-72
2022/09/14 09:07:52;;;;;;;17.17;7.90;;;;;;;19.70;100.00;99426.53;5113195;28;20146;-73
2022/09/14 09:10:21;;;;;;;11.52;7.35;;;;;;;20.02;100.00;99441.84;5111635;28;20385;-73
2022/09/14 09:12:53;;;;;;;13.70;7.40;;;;;;;20.05;100.00;99435.25;5113233;28;20050;-72
2022/09/14 09:15:25;;;;;;;11.90;7.85;;;;;;;20.12;100.00;99438.09;5112934;28;20404;-73
2022/09/14 09:17:58;;;;;;;13.05;6.93;;;;;;;20.28;100.00;99427.25;5111673;28;20050;-72
2022/09/14 09:20:31;;;;;;;14.75;7.75;;;;;;;20.35;100.00;99428.22;5111140;28;20413;-72
2022/09/14 09:23:06;;;;;;;;;;;;;;;20.55;100.00;99437.63;5112115;28;20141;-72
2022/09/14 09:25:48;;;;;;;13.07;7.15;;;;;;;20.66;100.00;99439.13;5112463;28;19927;-73
2022/09/14 09:28:17;;;;;;;16.58;7.00;;;;;;;20.63;100.00;99454.88;5112869;28;20054;-72
2022/09/14 09:30:45;;;;;;;11.70;7.35;;;;;;;20.60;100.00;99456.09;5112996;28;20043;-72
2022/09/14 09:33:17;;;;;;;12.07;6.57;;;;;;;20.62;100.00;99466.75;5112643;28;20063;-73
2022/09/14 09:35:45;;;;;;;11.88;7.18;;;;;;;20.75;100.00;99476.03;5112377;28;20044;-72
2022/09/14 09:38:17;;;;;;;11.32;6.75;;;;;;;20.76;100.00;99472.28;5111031;28;20082;-72
2022/09/14 09:40:49;;;;;;;10.82;7.30;;;;;;;20.72;100.00;99475.50;5111082;28;20071;-72
2022/09/14 09:43:19;;;;;;;10.50;7.38;;;;;;;20.66;100.00;99478.94;5112442;28;20066;-73
2022/09/14 09:46:07;;;;;;;12.23;7.50;;;;;;;20.70;100.00;99488.41;5110974;28;20048;-72
2022/09/14 09:48:41;;;;;;;14.07;7.20;;;;;;;20.39;100.00;99494.56;5112069;28;20539;-72
2022/09/14 09:51:13;;;;;;;12.10;7.32;;;;;;;20.41;100.00;99478.97;5112386;28;20040;-72
2022/09/14 09:53:49;;;;;;;13.82;8.55;;;;;;;19.96;100.00;99480.41;5112074;28;20039;-73
2022/09/14 09:56:20;;;;;;;13.73;7.90;;;;;;;20.33;100.00;99480.88;5112281;28;20060;-72
2022/09/14 09:58:50;;;;;;;12.98;8.25;;;;;;;20.53;100.00;99488.44;5111123;28;20075;-72
2022/09/14 10:01:21;;;;;;;14.20;7.70;;;;;;;20.60;100.00;99487.75;5112373;28;20048;-72
2022/09/14 10:04:15;;;;;;;13.45;7.13;;;;;;;20.71;100.00;99482.78;5112229;28;20114;-72
2022/09/14 10:06:45;;;;;;;13.45;7.45;;;;;;;20.72;100.00;99480.94;5111964;28;20155;-72
2022/09/14 10:09:18;;;;;;;13.48;8.00;;;;;;;20.82;100.00;99486.97;5112075;28;20485;-72
2022/09/14 10:11:47;;;;;;;12.13;7.77;;;;;;;20.92;100.00;99471.34;5111999;28;20051;-72
2022/09/14 10:14:24;;;;;;;11.60;7.50;;;;;;;21.22;100.00;99483.19;5110811;28;20127;-72
2022/09/14 10:16:52;;;;;;;11.30;7.45;;;;;;;21.42;99.77;99489.91;5111659;28;20051;-73
2022/09/14 10:19:23;;;;;;;17.08;8.18;;;;;;;21.75;100.00;99499.66;5111776;28;20373;-72
2022/09/14 10:22:19;;;;;;;15.27;8.45;;;;;;;21.94;97.64;99494.56;5111238;28;20047;-72
2022/09/14 10:24:57;;;;;;;10.80;8.10;;;;;;;22.04;94.10;99488.88;5110676;28;20039;-73
2022/09/14 10:27:39;;;;;;;13.35;8.13;;;;;;;22.12;91.82;99472.53;5110254;28;20204;-73
2022/09/14 10:30:16;;;;;;;13.75;7.95;;;;;;;22.25;92.14;99474.59;5111034;28;20226;-73
2022/09/14 10:32:49;;;;;;;16.05;8.05;;;;;;;22.27;90.00;99467.94;5111089;28;20410;-73
2022/09/14 10:35:20;;;;;;;17.25;7.75;;;;;;;22.33;88.90;99463.66;5109629;28;20147;-73
2022/09/14 10:38:06;;;;;;;12.82;7.85;;;;;;;22.39;86.30;99457.47;5111537;28;20047;-73
2022/09/14 10:40:38;;;;;;;13.93;8.18;;;;;;;22.31;89.85;99451.28;5111136;28;20043;-73
2022/09/14 10:43:15;;;;;;;11.68;7.43;;;;;;;22.27;90.36;99451.63;5110212;28;20054;-73
2022/09/14 10:45:49;;;;;;;10.50;6.68;;;;;;;22.44;89.19;99452.31;5111011;28;20050;-73
2022/09/14 10:48:44;;;;;;;12.48;6.95;;;;;;;22.37;90.82;99448.66;5110097;28;20167;-73
2022/09/14 10:51:31;;;;;;;11.38;6.97;;;;;;;22.36;88.04;99446.97;5111525;28;20403;-72
2022/09/14 10:54:08;;;;;;;11.07;6.88;;;;;;;22.35;89.88;99442.56;5111561;28;20040;-73
2022/09/14 10:56:52;;;;;;;10.60;6.43;;;;;;;22.38;90.49;99453.03;5111347;28;20052;-73
2022/09/14 10:59:30;;;;;;;15.30;7.15;;;;;;;22.53;88.01;99461.22;5111843;28;20047;-72
2022/09/14 11:02:42;;;;;;;10.20;6.90;;;;;;;22.70;87.67;99451.81;5112082;28;20047;-72
2022/09/14 11:05:20;;;;;;;11.02;6.75;;;;;;;22.76;86.44;99458.34;5047861;28;20135;-73
2022/09/14 11:08:08;;;;;;;10.98;6.85;;;;;;;22.69;85.25;99452.84;5111376;28;20467;-72
2022/09/14 11:10:47;;;;;;;13.07;7.32;;;;;;;22.75;85.21;99448.53;5110147;28;20382;-73
2022/09/14 11:13:41;;;;;;;10.23;6.70;;;;;;;22.81;84.73;99450.50;5111880;28;20039;-72
2022/09/14 11:16:29;;;;;;;11.50;6.50;;;;;;;22.79;88.30;99456.13;5111754;28;20040;-73
2022/09/14 11:19:06;;;;;;;9.43;6.38;;;;;;;22.80;87.61;99440.66;5110232;28;20058;-73
2022/09/14 11:21:43;;;;;;;12.88;6.85;;;;;;;22.92;87.09;99432.88;5111261;28;20046;-72
2022/09/14 11:24:19;;;;;;;11.35;6.25;;;;;;;22.92;86.35;99422.00;5111667;28;20402;-72
2022/09/14 11:26:59;;;;;;;11.30;6.28;;;;;;;22.89;86.90;99430.53;5111078;28;20073;-72
2022/09/14 11:29:31;;;;;;;11.82;6.60;;;;;;;22.91;86.17;99428.47;5114437;28;20051;-73
2022/09/14 11:32:06;;;;;;;9.65;6.57;;;;;;;22.88;88.18;99431.59;5113773;28;20051;-72
2022/09/14 11:34:54;;;;;;;11.18;6.03;;;;;;;22.82;89.17;99428.53;5114784;28;20105;-72
2022/09/14 11:37:30;;;;;;;12.38;6.35;;;;;;;22.80;89.64;99429.78;5114537;28;20055;-72
2022/09/14 11:40:06;;;;;;;8.32;5.55;;;;;;;22.74;89.47;99420.50;5113657;28;20079;-72
2022/09/14 11:42:40;;;;;;;13.93;6.32;;;;;;;22.61;89.38;99420.34;5114643;28;20114;-72
2022/09/14 11:45:17;;;;;;;11.48;5.90;;;;;;;22.57;90.76;99414.41;5113361;28;20048;-72
2022/09/14 11:47:52;;;;;;;13.68;5.85;;;;;;;22.65;91.40;99402.59;5114725;28;20075;-72